Terminal Aerodrome Forecast
Issued by NWS

Home | Current Version | Previous Version | Text Only | Print | Product List | Glossary On
Versions: 1 2 3 4 5 6 7 8 9 10 11 12 13 14 15
000
FTUS45 KPSR 301720
TAFSDL
TAF
KSDL 301720Z 3018/0118 16012G20KT P6SM SCT090 BKN110
     FM302200 27013G23KT P6SM VCTS SCT090CB BKN110
     FM010300 24007KT P6SM VCSH BKN100
     FM010400 VRB05KT P6SM BKN070=

USA.gov is the U.S. government's official web portal to all federal, state and local government web resources and services.